sensor_id;sensor_type;location;lat;lon;timestamp;P1;durP1;ratioP1;P2;durP2;ratioP2
9536;SDS011;4807;48.024;11.726;2022-09-04T00:02:18;2.83;;;0.47;;
9536;SDS011;4807;48.024;11.726;2022-09-04T00:05:46;0.60;;;0.60;;
9536;SDS011;4807;48.024;11.726;2022-09-04T00:09:01;0.40;;;0.40;;
9536;SDS011;4807;48.024;11.726;2022-09-04T00:12:20;1.17;;;0.57;;
9536;SDS011;4807;48.024;11.726;2022-09-04T00:15:38;0.63;;;0.57;;
9536;SDS011;4807;48.024;11.726;2022-09-04T00:18:56;0.53;;;0.53;;
9536;SDS011;4807;48.024;11.726;2022-09-04T00:22:18;1.50;;;0.70;;
9536;SDS011;4807;48.024;11.726;2022-09-04T00:25:38;1.17;;;0.57;;
9536;SDS011;4807;48.024;11.726;2022-09-04T00:28:57;2.70;;;0.53;;
9536;SDS011;4807;48.024;11.726;2022-09-04T00:32:22;0.50;;;0.50;;
9536;SDS011;4807;48.024;11.726;2022-09-04T00:35:36;0.60;;;0.60;;
9536;SDS011;4807;48.024;11.726;2022-09-04T00:38:50;0.60;;;0.60;;
9536;SDS011;4807;48.024;11.726;2022-09-04T00:42:11;1.27;;;0.50;;
9536;SDS011;4807;48.024;11.726;2022-09-04T00:45:39;0.83;;;0.53;;
9536;SDS011;4807;48.024;11.726;2022-09-04T00:53:15;2.27;;;0.53;;
9536;SDS011;4807;48.024;11.726;2022-09-04T00:56:51;0.43;;;0.43;;
9536;SDS011;4807;48.024;11.726;2022-09-04T01:00:27;1.30;;;0.50;;
9536;SDS011;4807;48.024;11.726;2022-09-04T01:03:42;0.50;;;0.50;;
9536;SDS011;4807;48.024;11.726;2022-09-04T01:07:31;0.50;;;0.50;;
9536;SDS011;4807;48.024;11.726;2022-09-04T01:10:58;0.57;;;0.50;;
9536;SDS011;4807;48.024;11.726;2022-09-04T01:14:21;0.83;;;0.63;;
9536;SDS011;4807;48.024;11.726;2022-09-04T01:17:52;0.90;;;0.70;;
9536;SDS011;4807;48.024;11.726;2022-09-04T01:21:21;1.80;;;0.90;;
9536;SDS011;4807;48.024;11.726;2022-09-04T01:25:08;0.80;;;0.80;;
9536;SDS011;4807;48.024;11.726;2022-09-04T01:28:41;0.83;;;0.83;;
9536;SDS011;4807;48.024;11.726;2022-09-04T01:32:15;0.87;;;0.67;;
9536;SDS011;4807;48.024;11.726;2022-09-04T01:35:41;1.90;;;0.70;;
9536;SDS011;4807;48.024;11.726;2022-09-04T01:39:02;1.53;;;0.70;;
9536;SDS011;4807;48.024;11.726;2022-09-04T01:42:11;0.80;;;0.73;;
9536;SDS011;4807;48.024;11.726;2022-09-04T01:45:31;0.80;;;0.80;;
9536;SDS011;4807;48.024;11.726;2022-09-04T01:49:30;0.60;;;0.60;;
9536;SDS011;4807;48.024;11.726;2022-09-04T01:52:45;1.43;;;0.70;;
9536;SDS011;4807;48.024;11.726;2022-09-04T01:56:06;0.80;;;0.80;;
9536;SDS011;4807;48.024;11.726;2022-09-04T01:59:23;2.60;;;0.70;;
9536;SDS011;4807;48.024;11.726;2022-09-04T02:02:45;0.60;;;0.60;;
9536;SDS011;4807;48.024;11.726;2022-09-04T02:06:13;2.63;;;0.60;;
9536;SDS011;4807;48.024;11.726;2022-09-04T02:09:35;1.10;;;0.90;;
9536;SDS011;4807;48.024;11.726;2022-09-04T02:17:51;0.70;;;0.70;;
9536;SDS011;4807;48.024;11.726;2022-09-04T02:21:19;1.63;;;0.90;;
9536;SDS011;4807;48.024;11.726;2022-09-04T02:24:38;1.07;;;0.60;;
9536;SDS011;4807;48.024;11.726;2022-09-04T02:27:58;0.50;;;0.50;;
9536;SDS011;4807;48.024;11.726;2022-09-04T02:31:25;3.47;;;0.87;;
9536;SDS011;4807;48.024;11.726;2022-09-04T02:34:47;0.70;;;0.70;;
9536;SDS011;4807;48.024;11.726;2022-09-04T02:38:09;0.80;;;0.70;;
9536;SDS011;4807;48.024;11.726;2022-09-04T02:41:33;0.70;;;0.60;;
9536;SDS011;4807;48.024;11.726;2022-09-04T02:44:49;0.80;;;0.63;;
9536;SDS011;4807;48.024;11.726;2022-09-04T02:48:17;1.87;;;0.60;;
9536;SDS011;4807;48.024;11.726;2022-09-04T02:51:45;0.93;;;0.60;;
9536;SDS011;4807;48.024;11.726;2022-09-04T02:55:10;0.90;;;0.80;;
9536;SDS011;4807;48.024;11.726;2022-09-04T02:58:31;0.60;;;0.60;;
9536;SDS011;4807;48.024;11.726;2022-09-04T03:01:56;0.70;;;0.70;;
9536;SDS011;4807;48.024;11.726;2022-09-04T03:05:10;0.60;;;0.60;;
9536;SDS011;4807;48.024;11.726;2022-09-04T03:08:31;1.60;;;0.70;;
9536;SDS011;4807;48.024;11.726;2022-09-04T03:11:47;0.50;;;0.50;;
9536;SDS011;4807;48.024;11.726;2022-09-04T03:15:07;0.77;;;0.77;;
9536;SDS011;4807;48.024;11.726;2022-09-04T03:18:28;0.70;;;0.70;;
9536;SDS011;4807;48.024;11.726;2022-09-04T03:21:48;0.63;;;0.63;;
9536;SDS011;4807;48.024;11.726;2022-09-04T03:25:10;1.00;;;1.00;;
9536;SDS011;4807;48.024;11.726;2022-09-04T03:28:59;1.27;;;0.60;;
9536;SDS011;4807;48.024;11.726;2022-09-04T03:32:17;1.00;;;0.87;;
9536;SDS011;4807;48.024;11.726;2022-09-04T03:35:36;0.63;;;0.63;;
9536;SDS011;4807;48.024;11.726;2022-09-04T03:38:58;1.30;;;0.73;;
9536;SDS011;4807;48.024;11.726;2022-09-04T03:42:21;0.70;;;0.70;;
9536;SDS011;4807;48.024;11.726;2022-09-04T03:45:42;2.33;;;0.90;;
9536;SDS011;4807;48.024;11.726;2022-09-04T03:49:04;0.70;;;0.70;;
9536;SDS011;4807;48.024;11.726;2022-09-04T03:52:24;2.43;;;0.70;;
9536;SDS011;4807;48.024;11.726;2022-09-04T03:56:02;1.77;;;0.70;;
9536;SDS011;4807;48.024;11.726;2022-09-04T04:00:00;1.07;;;0.93;;
9536;SDS011;4807;48.024;11.726;2022-09-04T04:03:21;1.43;;;0.70;;
9536;SDS011;4807;48.024;11.726;2022-09-04T04:06:50;0.90;;;0.90;;
9536;SDS011;4807;48.024;11.726;2022-09-04T04:10:20;1.00;;;0.90;;
9536;SDS011;4807;48.024;11.726;2022-09-04T04:13:48;1.50;;;0.87;;
9536;SDS011;4807;48.024;11.726;2022-09-04T04:17:40;0.60;;;0.60;;
9536;SDS011;4807;48.024;11.726;2022-09-04T04:21:07;0.70;;;0.70;;
9536;SDS011;4807;48.024;11.726;2022-09-04T04:28:17;0.90;;;0.90;;
9536;SDS011;4807;48.024;11.726;2022-09-04T04:31:51;1.07;;;0.77;;
9536;SDS011;4807;48.024;11.726;2022-09-04T04:35:23;1.33;;;0.90;;
9536;SDS011;4807;48.024;11.726;2022-09-04T04:38:43;0.70;;;0.70;;
9536;SDS011;4807;48.024;11.726;2022-09-04T04:42:17;1.70;;;1.60;;
9536;SDS011;4807;48.024;11.726;2022-09-04T04:45:36;1.50;;;1.40;;
9536;SDS011;4807;48.024;11.726;2022-09-04T04:49:11;1.03;;;1.00;;
9536;SDS011;4807;48.024;11.726;2022-09-04T04:52:58;1.63;;;1.53;;
9536;SDS011;4807;48.024;11.726;2022-09-04T04:56:21;1.20;;;1.10;;
9536;SDS011;4807;48.024;11.726;2022-09-04T04:59:37;1.10;;;1.10;;
9536;SDS011;4807;48.024;11.726;2022-09-04T05:02:57;1.10;;;1.00;;
9536;SDS011;4807;48.024;11.726;2022-09-04T05:06:15;0.80;;;0.80;;
9536;SDS011;4807;48.024;11.726;2022-09-04T05:09:39;0.90;;;0.90;;
9536;SDS011;4807;48.024;11.726;2022-09-04T05:12:58;1.07;;;1.00;;
9536;SDS011;4807;48.024;11.726;2022-09-04T05:16:19;1.30;;;1.20;;
9536;SDS011;4807;48.024;11.726;2022-09-04T05:19:43;1.80;;;1.33;;
9536;SDS011;4807;48.024;11.726;2022-09-04T05:23:00;1.33;;;1.30;;
9536;SDS011;4807;48.024;11.726;2022-09-04T05:26:37;1.50;;;1.40;;
9536;SDS011;4807;48.024;11.726;2022-09-04T05:30:00;2.50;;;1.20;;
9536;SDS011;4807;48.024;11.726;2022-09-04T05:33:18;0.90;;;0.90;;
9536;SDS011;4807;48.024;11.726;2022-09-04T05:36:45;0.93;;;0.93;;
9536;SDS011;4807;48.024;11.726;2022-09-04T05:40:10;2.13;;;1.00;;
9536;SDS011;4807;48.024;11.726;2022-09-04T05:43:35;1.27;;;1.17;;
9536;SDS011;4807;48.024;11.726;2022-09-04T05:47:06;2.30;;;1.80;;
9536;SDS011;4807;48.024;11.726;2022-09-04T05:50:46;1.60;;;1.50;;
9536;SDS011;4807;48.024;11.726;2022-09-04T05:58:02;1.60;;;1.60;;
9536;SDS011;4807;48.024;11.726;2022-09-04T06:01:46;1.50;;;1.47;;
9536;SDS011;4807;48.024;11.726;2022-09-04T06:05:12;1.50;;;1.40;;
9536;SDS011;4807;48.024;11.726;2022-09-04T06:08:38;1.30;;;1.20;;
9536;SDS011;4807;48.024;11.726;2022-09-04T06:12:12;1.70;;;1.20;;
9536;SDS011;4807;48.024;11.726;2022-09-04T06:16:08;2.50;;;1.20;;
9536;SDS011;4807;48.024;11.726;2022-09-04T06:19:44;4.23;;;2.07;;
9536;SDS011;4807;48.024;11.726;2022-09-04T06:23:24;4.23;;;3.20;;
9536;SDS011;4807;48.024;11.726;2022-09-04T06:27:02;6.43;;;5.37;;
9536;SDS011;4807;48.024;11.726;2022-09-04T06:30:33;2.60;;;2.40;;
9536;SDS011;4807;48.024;11.726;2022-09-04T06:33:55;0.97;;;0.70;;
9536;SDS011;4807;48.024;11.726;2022-09-04T06:37:19;0.80;;;0.70;;
9536;SDS011;4807;48.024;11.726;2022-09-04T06:40:46;1.77;;;0.77;;
9536;SDS011;4807;48.024;11.726;2022-09-04T06:44:14;0.63;;;0.50;;
9536;SDS011;4807;48.024;11.726;2022-09-04T06:47:48;0.80;;;0.53;;
9536;SDS011;4807;48.024;11.726;2022-09-04T06:51:17;3.13;;;0.53;;
9536;SDS011;4807;48.024;11.726;2022-09-04T06:54:52;1.07;;;0.70;;
9536;SDS011;4807;48.024;11.726;2022-09-04T06:58:12;0.43;;;0.43;;
9536;SDS011;4807;48.024;11.726;2022-09-04T07:01:52;0.57;;;0.53;;
9536;SDS011;4807;48.024;11.726;2022-09-04T07:05:16;0.60;;;0.60;;
9536;SDS011;4807;48.024;11.726;2022-09-04T07:08:42;0.60;;;0.60;;
9536;SDS011;4807;48.024;11.726;2022-09-04T07:16:14;0.63;;;0.50;;
9536;SDS011;4807;48.024;11.726;2022-09-04T07:19:47;0.67;;;0.63;;
9536;SDS011;4807;48.024;11.726;2022-09-04T07:23:26;0.50;;;0.50;;
9536;SDS011;4807;48.024;11.726;2022-09-04T07:26:47;0.50;;;0.50;;
9536;SDS011;4807;48.024;11.726;2022-09-04T07:30:11;0.43;;;0.43;;
9536;SDS011;4807;48.024;11.726;2022-09-04T07:33:23;9.93;;;5.20;;
9536;SDS011;4807;48.024;11.726;2022-09-04T07:36:48;5.83;;;2.90;;
9536;SDS011;4807;48.024;11.726;2022-09-04T07:40:05;1.73;;;1.57;;
9536;SDS011;4807;48.024;11.726;2022-09-04T07:43:23;1.10;;;1.07;;
9536;SDS011;4807;48.024;11.726;2022-09-04T07:46:48;0.80;;;0.80;;
9536;SDS011;4807;48.024;11.726;2022-09-04T07:50:16;1.30;;;1.20;;
9536;SDS011;4807;48.024;11.726;2022-09-04T07:53:32;0.60;;;0.60;;
9536;SDS011;4807;48.024;11.726;2022-09-04T07:57:23;1.00;;;0.90;;
9536;SDS011;4807;48.024;11.726;2022-09-04T08:01:02;0.77;;;0.77;;
9536;SDS011;4807;48.024;11.726;2022-09-04T08:08:43;2.10;;;0.70;;
9536;SDS011;4807;48.024;11.726;2022-09-04T08:12:41;0.80;;;0.60;;
9536;SDS011;4807;48.024;11.726;2022-09-04T08:16:04;0.80;;;0.80;;
9536;SDS011;4807;48.024;11.726;2022-09-04T08:19:17;1.27;;;0.97;;
9536;SDS011;4807;48.024;11.726;2022-09-04T08:26:07;1.00;;;0.87;;
9536;SDS011;4807;48.024;11.726;2022-09-04T08:29:47;0.60;;;0.60;;
9536;SDS011;4807;48.024;11.726;2022-09-04T08:33:14;0.73;;;0.73;;
9536;SDS011;4807;48.024;11.726;2022-09-04T08:36:53;0.80;;;0.60;;
9536;SDS011;4807;48.024;11.726;2022-09-04T08:40:39;1.67;;;0.80;;
9536;SDS011;4807;48.024;11.726;2022-09-04T08:48:35;1.10;;;1.10;;
9536;SDS011;4807;48.024;11.726;2022-09-04T08:52:35;2.90;;;1.10;;
9536;SDS011;4807;48.024;11.726;2022-09-04T08:56:20;1.00;;;0.90;;
9536;SDS011;4807;48.024;11.726;2022-09-04T08:59:54;1.10;;;1.00;;
9536;SDS011;4807;48.024;11.726;2022-09-04T09:03:19;1.17;;;1.07;;
9536;SDS011;4807;48.024;11.726;2022-09-04T09:07:17;1.03;;;1.03;;
9536;SDS011;4807;48.024;11.726;2022-09-04T09:11:26;0.90;;;0.90;;
9536;SDS011;4807;48.024;11.726;2022-09-04T09:15:28;0.90;;;0.90;;
9536;SDS011;4807;48.024;11.726;2022-09-04T09:19:02;0.67;;;0.67;;
9536;SDS011;4807;48.024;11.726;2022-09-04T09:22:23;1.67;;;0.83;;
9536;SDS011;4807;48.024;11.726;2022-09-04T09:26:00;1.00;;;1.00;;
9536;SDS011;4807;48.024;11.726;2022-09-04T09:29:47;2.93;;;0.90;;
9536;SDS011;4807;48.024;11.726;2022-09-04T09:33:21;0.97;;;0.97;;
9536;SDS011;4807;48.024;11.726;2022-09-04T09:41:21;1.40;;;0.63;;
9536;SDS011;4807;48.024;11.726;2022-09-04T09:45:20;0.67;;;0.67;;
9536;SDS011;4807;48.024;11.726;2022-09-04T09:49:07;1.57;;;0.90;;
9536;SDS011;4807;48.024;11.726;2022-09-04T09:53:20;1.83;;;0.70;;
9536;SDS011;4807;48.024;11.726;2022-09-04T10:01:31;1.17;;;0.67;;
9536;SDS011;4807;48.024;11.726;2022-09-04T10:09:46;0.60;;;0.60;;
9536;SDS011;4807;48.024;11.726;2022-09-04T10:17:44;1.50;;;0.50;;
9536;SDS011;4807;48.024;11.726;2022-09-04T10:25:35;0.50;;;0.50;;
9536;SDS011;4807;48.024;11.726;2022-09-04T10:29:42;1.33;;;0.50;;
9536;SDS011;4807;48.024;11.726;2022-09-04T10:33:21;1.30;;;0.50;;
9536;SDS011;4807;48.024;11.726;2022-09-04T10:36:49;0.50;;;0.50;;
9536;SDS011;4807;48.024;11.726;2022-09-04T10:40:19;1.57;;;0.80;;
9536;SDS011;4807;48.024;11.726;2022-09-04T10:44:03;1.97;;;0.60;;
9536;SDS011;4807;48.024;11.726;2022-09-04T10:47:59;0.90;;;0.70;;
9536;SDS011;4807;48.024;11.726;2022-09-04T10:51:51;0.70;;;0.70;;
9536;SDS011;4807;48.024;11.726;2022-09-04T10:55:31;1.57;;;0.60;;
9536;SDS011;4807;48.024;11.726;2022-09-04T11:03:33;1.27;;;0.50;;
9536;SDS011;4807;48.024;11.726;2022-09-04T11:07:32;0.30;;;0.30;;
9536;SDS011;4807;48.024;11.726;2022-09-04T11:11:12;0.63;;;0.63;;
9536;SDS011;4807;48.024;11.726;2022-09-04T11:14:52;0.80;;;0.50;;
9536;SDS011;4807;48.024;11.726;2022-09-04T11:22:59;0.50;;;0.43;;
9536;SDS011;4807;48.024;11.726;2022-09-04T11:26:57;4.03;;;0.60;;
9536;SDS011;4807;48.024;11.726;2022-09-04T11:30:49;0.67;;;0.67;;
9536;SDS011;4807;48.024;11.726;2022-09-04T11:34:41;0.60;;;0.60;;
9536;SDS011;4807;48.024;11.726;2022-09-04T11:38:30;1.80;;;0.60;;
9536;SDS011;4807;48.024;11.726;2022-09-04T11:42:23;0.70;;;0.47;;
9536;SDS011;4807;48.024;11.726;2022-09-04T11:45:51;1.20;;;0.60;;
9536;SDS011;4807;48.024;11.726;2022-09-04T11:49:33;0.80;;;0.67;;
9536;SDS011;4807;48.024;11.726;2022-09-04T11:53:20;0.50;;;0.47;;
9536;SDS011;4807;48.024;11.726;2022-09-04T11:57:06;0.80;;;0.57;;
9536;SDS011;4807;48.024;11.726;2022-09-04T12:00:22;1.80;;;0.60;;
9536;SDS011;4807;48.024;11.726;2022-09-04T12:07:31;2.63;;;0.60;;
9536;SDS011;4807;48.024;11.726;2022-09-04T12:11:04;0.50;;;0.50;;
9536;SDS011;4807;48.024;11.726;2022-09-04T12:14:53;0.50;;;0.50;;
9536;SDS011;4807;48.024;11.726;2022-09-04T12:18:48;0.57;;;0.40;;
9536;SDS011;4807;48.024;11.726;2022-09-04T12:22:53;0.80;;;0.43;;
9536;SDS011;4807;48.024;11.726;2022-09-04T12:26:31;0.40;;;0.40;;
9536;SDS011;4807;48.024;11.726;2022-09-04T12:30:18;1.03;;;0.50;;
9536;SDS011;4807;48.024;11.726;2022-09-04T12:33:37;0.40;;;0.40;;
9536;SDS011;4807;48.024;11.726;2022-09-04T12:37:37;0.70;;;0.70;;
9536;SDS011;4807;48.024;11.726;2022-09-04T12:41:17;0.97;;;0.50;;
9536;SDS011;4807;48.024;11.726;2022-09-04T12:44:38;1.23;;;0.60;;
9536;SDS011;4807;48.024;11.726;2022-09-04T12:48:07;0.70;;;0.43;;
9536;SDS011;4807;48.024;11.726;2022-09-04T12:51:32;1.30;;;0.47;;
9536;SDS011;4807;48.024;11.726;2022-09-04T12:54:52;0.60;;;0.60;;
9536;SDS011;4807;48.024;11.726;2022-09-04T12:58:18;0.70;;;0.70;;
9536;SDS011;4807;48.024;11.726;2022-09-04T13:01:43;1.23;;;0.50;;
9536;SDS011;4807;48.024;11.726;2022-09-04T13:05:21;0.73;;;0.60;;
9536;SDS011;4807;48.024;11.726;2022-09-04T13:09:06;1.23;;;0.50;;
9536;SDS011;4807;48.024;11.726;2022-09-04T13:12:30;0.50;;;0.50;;
9536;SDS011;4807;48.024;11.726;2022-09-04T13:15:53;0.60;;;0.60;;
9536;SDS011;4807;48.024;11.726;2022-09-04T13:19:08;0.70;;;0.60;;
9536;SDS011;4807;48.024;11.726;2022-09-04T13:22:31;4.37;;;0.80;;
9536;SDS011;4807;48.024;11.726;2022-09-04T13:26:18;0.83;;;0.50;;
9536;SDS011;4807;48.024;11.726;2022-09-04T13:29:53;0.63;;;0.47;;
9536;SDS011;4807;48.024;11.726;2022-09-04T13:33:18;0.50;;;0.50;;
9536;SDS011;4807;48.024;11.726;2022-09-04T13:36:57;0.70;;;0.53;;
9536;SDS011;4807;48.024;11.726;2022-09-04T13:40:25;0.60;;;0.60;;
9536;SDS011;4807;48.024;11.726;2022-09-04T13:43:56;1.07;;;0.47;;
9536;SDS011;4807;48.024;11.726;2022-09-04T13:47:39;0.50;;;0.50;;
9536;SDS011;4807;48.024;11.726;2022-09-04T13:50:56;1.07;;;0.63;;
9536;SDS011;4807;48.024;11.726;2022-09-04T13:54:19;1.43;;;0.60;;
9536;SDS011;4807;48.024;11.726;2022-09-04T13:57:36;0.80;;;0.63;;
9536;SDS011;4807;48.024;11.726;2022-09-04T14:00:53;0.50;;;0.50;;
9536;SDS011;4807;48.024;11.726;2022-09-04T14:04:08;0.73;;;0.60;;
9536;SDS011;4807;48.024;11.726;2022-09-04T14:07:24;2.63;;;0.70;;
9536;SDS011;4807;48.024;11.726;2022-09-04T14:10:50;0.53;;;0.50;;
9536;SDS011;4807;48.024;11.726;2022-09-04T14:19:01;0.40;;;0.40;;
9536;SDS011;4807;48.024;11.726;2022-09-04T14:22:39;1.43;;;0.50;;
9536;SDS011;4807;48.024;11.726;2022-09-04T14:26:02;1.47;;;0.53;;
9536;SDS011;4807;48.024;11.726;2022-09-04T14:29:30;1.10;;;0.50;;
9536;SDS011;4807;48.024;11.726;2022-09-04T14:32:58;0.50;;;0.50;;
9536;SDS011;4807;48.024;11.726;2022-09-04T14:40:30;0.57;;;0.50;;
9536;SDS011;4807;48.024;11.726;2022-09-04T14:43:48;0.60;;;0.60;;
9536;SDS011;4807;48.024;11.726;2022-09-04T14:47:29;0.57;;;0.53;;
9536;SDS011;4807;48.024;11.726;2022-09-04T14:50:48;0.50;;;0.50;;
9536;SDS011;4807;48.024;11.726;2022-09-04T14:54:02;0.60;;;0.60;;
9536;SDS011;4807;48.024;11.726;2022-09-04T14:57:15;0.70;;;0.60;;
9536;SDS011;4807;48.024;11.726;2022-09-04T15:00:33;1.13;;;0.60;;
9536;SDS011;4807;48.024;11.726;2022-09-04T15:04:10;0.40;;;0.40;;
9536;SDS011;4807;48.024;11.726;2022-09-04T15:07:48;4.30;;;0.60;;
9536;SDS011;4807;48.024;11.726;2022-09-04T15:11:08;0.50;;;0.50;;
9536;SDS011;4807;48.024;11.726;2022-09-04T15:14:37;0.90;;;0.60;;
9536;SDS011;4807;48.024;11.726;2022-09-04T15:17:46;2.27;;;0.60;;
9536;SDS011;4807;48.024;11.726;2022-09-04T15:21:04;0.53;;;0.53;;
9536;SDS011;4807;48.024;11.726;2022-09-04T15:24:27;0.60;;;0.60;;
9536;SDS011;4807;48.024;11.726;2022-09-04T15:27:45;0.87;;;0.77;;
9536;SDS011;4807;48.024;11.726;2022-09-04T15:31:11;1.50;;;0.50;;
9536;SDS011;4807;48.024;11.726;2022-09-04T15:34:25;0.57;;;0.40;;
9536;SDS011;4807;48.024;11.726;2022-09-04T15:41:21;0.70;;;0.70;;
9536;SDS011;4807;48.024;11.726;2022-09-04T15:44:44;0.50;;;0.50;;
9536;SDS011;4807;48.024;11.726;2022-09-04T15:48:00;0.90;;;0.73;;
9536;SDS011;4807;48.024;11.726;2022-09-04T15:51:35;0.50;;;0.50;;
9536;SDS011;4807;48.024;11.726;2022-09-04T15:58:28;1.00;;;0.60;;
9536;SDS011;4807;48.024;11.726;2022-09-04T16:01:46;0.50;;;0.50;;
9536;SDS011;4807;48.024;11.726;2022-09-04T16:05:03;1.50;;;0.80;;
9536;SDS011;4807;48.024;11.726;2022-09-04T16:08:30;0.67;;;0.50;;
9536;SDS011;4807;48.024;11.726;2022-09-04T16:11:53;2.77;;;0.60;;
9536;SDS011;4807;48.024;11.726;2022-09-04T16:15:15;0.70;;;0.50;;
9536;SDS011;4807;48.024;11.726;2022-09-04T16:18:39;0.60;;;0.60;;
9536;SDS011;4807;48.024;11.726;2022-09-04T16:22:18;1.30;;;0.90;;
9536;SDS011;4807;48.024;11.726;2022-09-04T16:25:40;0.50;;;0.50;;
9536;SDS011;4807;48.024;11.726;2022-09-04T16:28:56;0.53;;;0.50;;
9536;SDS011;4807;48.024;11.726;2022-09-04T16:32:17;0.73;;;0.60;;
9536;SDS011;4807;48.024;11.726;2022-09-04T16:35:31;1.50;;;1.33;;
9536;SDS011;4807;48.024;11.726;2022-09-04T16:38:49;2.33;;;0.80;;
9536;SDS011;4807;48.024;11.726;2022-09-04T16:42:10;0.80;;;0.80;;
9536;SDS011;4807;48.024;11.726;2022-09-04T16:45:29;1.27;;;1.17;;
9536;SDS011;4807;48.024;11.726;2022-09-04T16:48:47;1.63;;;1.00;;
9536;SDS011;4807;48.024;11.726;2022-09-04T16:52:15;1.30;;;0.87;;
9536;SDS011;4807;48.024;11.726;2022-09-04T16:55:39;2.50;;;0.80;;
9536;SDS011;4807;48.024;11.726;2022-09-04T16:58:59;0.70;;;0.70;;
9536;SDS011;4807;48.024;11.726;2022-09-04T17:02:29;0.60;;;0.60;;
9536;SDS011;4807;48.024;11.726;2022-09-04T17:05:50;1.40;;;0.77;;
9536;SDS011;4807;48.024;11.726;2022-09-04T17:09:08;1.57;;;0.67;;
9536;SDS011;4807;48.024;11.726;2022-09-04T17:12:36;2.63;;;1.00;;
9536;SDS011;4807;48.024;11.726;2022-09-04T17:15:56;1.00;;;0.83;;
9536;SDS011;4807;48.024;11.726;2022-09-04T17:19:10;0.77;;;0.70;;
9536;SDS011;4807;48.024;11.726;2022-09-04T17:22:21;0.90;;;0.90;;
9536;SDS011;4807;48.024;11.726;2022-09-04T17:26:05;0.67;;;0.60;;
9536;SDS011;4807;48.024;11.726;2022-09-04T17:29:40;0.90;;;0.70;;
9536;SDS011;4807;48.024;11.726;2022-09-04T17:33:02;0.70;;;0.70;;
9536;SDS011;4807;48.024;11.726;2022-09-04T17:36:43;1.10;;;0.90;;
9536;SDS011;4807;48.024;11.726;2022-09-04T17:40:19;0.70;;;0.70;;
9536;SDS011;4807;48.024;11.726;2022-09-04T17:43:59;0.60;;;0.60;;
9536;SDS011;4807;48.024;11.726;2022-09-04T17:47:26;0.90;;;0.90;;
9536;SDS011;4807;48.024;11.726;2022-09-04T17:50:45;2.80;;;1.23;;
9536;SDS011;4807;48.024;11.726;2022-09-04T17:53:59;1.83;;;1.00;;
9536;SDS011;4807;48.024;11.726;2022-09-04T17:57:19;1.40;;;1.30;;
9536;SDS011;4807;48.024;11.726;2022-09-04T18:00:48;1.53;;;1.00;;
9536;SDS011;4807;48.024;11.726;2022-09-04T18:04:23;2.40;;;1.03;;
9536;SDS011;4807;48.024;11.726;2022-09-04T18:07:43;1.63;;;1.30;;
9536;SDS011;4807;48.024;11.726;2022-09-04T18:11:16;2.23;;;1.70;;
9536;SDS011;4807;48.024;11.726;2022-09-04T18:14:36;1.40;;;1.30;;
9536;SDS011;4807;48.024;11.726;2022-09-04T18:18:17;1.43;;;1.10;;
9536;SDS011;4807;48.024;11.726;2022-09-04T18:21:36;1.93;;;1.30;;
9536;SDS011;4807;48.024;11.726;2022-09-04T18:25:12;3.80;;;2.60;;
9536;SDS011;4807;48.024;11.726;2022-09-04T18:28:31;8.30;;;4.77;;
9536;SDS011;4807;48.024;11.726;2022-09-04T18:31:57;5.63;;;4.30;;
9536;SDS011;4807;48.024;11.726;2022-09-04T18:35:44;4.07;;;2.37;;
9536;SDS011;4807;48.024;11.726;2022-09-04T18:39:23;1.60;;;1.33;;
9536;SDS011;4807;48.024;11.726;2022-09-04T18:42:45;3.77;;;1.20;;
9536;SDS011;4807;48.024;11.726;2022-09-04T18:46:23;2.20;;;1.03;;
9536;SDS011;4807;48.024;11.726;2022-09-04T18:49:55;3.10;;;1.13;;
9536;SDS011;4807;48.024;11.726;2022-09-04T18:53:28;2.67;;;0.93;;
9536;SDS011;4807;48.024;11.726;2022-09-04T18:56:49;1.33;;;1.17;;
9536;SDS011;4807;48.024;11.726;2022-09-04T19:00:12;1.13;;;1.03;;
9536;SDS011;4807;48.024;11.726;2022-09-04T19:03:35;1.57;;;1.13;;
9536;SDS011;4807;48.024;11.726;2022-09-04T19:06:52;1.53;;;1.40;;
9536;SDS011;4807;48.024;11.726;2022-09-04T19:10:21;2.10;;;1.60;;
9536;SDS011;4807;48.024;11.726;2022-09-04T19:13:34;1.53;;;1.40;;
9536;SDS011;4807;48.024;11.726;2022-09-04T19:16:51;1.97;;;1.23;;
9536;SDS011;4807;48.024;11.726;2022-09-04T19:20:10;5.60;;;1.50;;
9536;SDS011;4807;48.024;11.726;2022-09-04T19:23:26;3.63;;;1.40;;
9536;SDS011;4807;48.024;11.726;2022-09-04T19:30:44;1.73;;;1.23;;
9536;SDS011;4807;48.024;11.726;2022-09-04T19:34:01;5.73;;;1.73;;
9536;SDS011;4807;48.024;11.726;2022-09-04T19:37:24;2.37;;;1.03;;
9536;SDS011;4807;48.024;11.726;2022-09-04T19:41:03;1.60;;;1.50;;
9536;SDS011;4807;48.024;11.726;2022-09-04T19:44:48;1.50;;;1.40;;
9536;SDS011;4807;48.024;11.726;2022-09-04T19:48:24;1.20;;;1.10;;
9536;SDS011;4807;48.024;11.726;2022-09-04T19:52:12;1.33;;;1.23;;
9536;SDS011;4807;48.024;11.726;2022-09-04T19:55:47;1.80;;;1.70;;
9536;SDS011;4807;48.024;11.726;2022-09-04T19:59:03;1.90;;;1.80;;
9536;SDS011;4807;48.024;11.726;2022-09-04T20:02:22;2.23;;;2.03;;
9536;SDS011;4807;48.024;11.726;2022-09-04T20:05:49;1.90;;;1.80;;
9536;SDS011;4807;48.024;11.726;2022-09-04T20:09:28;1.60;;;1.50;;
9536;SDS011;4807;48.024;11.726;2022-09-04T20:12:45;2.27;;;1.50;;
9536;SDS011;4807;48.024;11.726;2022-09-04T20:16:12;3.23;;;1.47;;
9536;SDS011;4807;48.024;11.726;2022-09-04T20:19:33;1.60;;;1.30;;
9536;SDS011;4807;48.024;11.726;2022-09-04T20:22:51;1.57;;;1.47;;
9536;SDS011;4807;48.024;11.726;2022-09-04T20:26:08;3.77;;;1.70;;
9536;SDS011;4807;48.024;11.726;2022-09-04T20:29:28;4.23;;;1.57;;
9536;SDS011;4807;48.024;11.726;2022-09-04T20:32:45;1.90;;;1.50;;
9536;SDS011;4807;48.024;11.726;2022-09-04T20:36:11;2.33;;;1.60;;
9536;SDS011;4807;48.024;11.726;2022-09-04T20:39:24;2.40;;;1.40;;
9536;SDS011;4807;48.024;11.726;2022-09-04T20:42:42;1.43;;;1.33;;
9536;SDS011;4807;48.024;11.726;2022-09-04T20:46:10;1.53;;;1.43;;
9536;SDS011;4807;48.024;11.726;2022-09-04T20:49:45;2.67;;;1.43;;
9536;SDS011;4807;48.024;11.726;2022-09-04T20:53:27;1.30;;;1.20;;
9536;SDS011;4807;48.024;11.726;2022-09-04T20:56:49;1.43;;;1.33;;
9536;SDS011;4807;48.024;11.726;2022-09-04T21:00:32;1.30;;;1.20;;
9536;SDS011;4807;48.024;11.726;2022-09-04T21:04:15;1.80;;;1.50;;
9536;SDS011;4807;48.024;11.726;2022-09-04T21:07:48;1.57;;;1.47;;
9536;SDS011;4807;48.024;11.726;2022-09-04T21:11:08;1.70;;;1.60;;
9536;SDS011;4807;48.024;11.726;2022-09-04T21:14:45;2.23;;;1.70;;
9536;SDS011;4807;48.024;11.726;2022-09-04T21:18:17;1.47;;;1.37;;
9536;SDS011;4807;48.024;11.726;2022-09-04T21:21:54;2.90;;;1.60;;
9536;SDS011;4807;48.024;11.726;2022-09-04T21:25:41;1.67;;;1.53;;
9536;SDS011;4807;48.024;11.726;2022-09-04T21:29:05;1.63;;;1.50;;
9536;SDS011;4807;48.024;11.726;2022-09-04T21:36:36;2.23;;;1.80;;
9536;SDS011;4807;48.024;11.726;2022-09-04T21:40:01;1.60;;;1.50;;
9536;SDS011;4807;48.024;11.726;2022-09-04T21:44:13;3.50;;;1.30;;
9536;SDS011;4807;48.024;11.726;2022-09-04T21:51:50;1.93;;;1.30;;
9536;SDS011;4807;48.024;11.726;2022-09-04T21:55:33;1.50;;;1.33;;
9536;SDS011;4807;48.024;11.726;2022-09-04T22:03:35;1.37;;;1.27;;
9536;SDS011;4807;48.024;11.726;2022-09-04T22:06:52;3.00;;;1.80;;
9536;SDS011;4807;48.024;11.726;2022-09-04T22:10:31;2.80;;;1.67;;
9536;SDS011;4807;48.024;11.726;2022-09-04T22:14:20;1.60;;;1.50;;
9536;SDS011;4807;48.024;11.726;2022-09-04T22:17:51;2.20;;;1.70;;
9536;SDS011;4807;48.024;11.726;2022-09-04T22:31:07;1.30;;;1.20;;
9536;SDS011;4807;48.024;11.726;2022-09-04T22:38:47;2.07;;;1.50;;
9536;SDS011;4807;48.024;11.726;2022-09-04T22:42:40;1.50;;;1.40;;
9536;SDS011;4807;48.024;11.726;2022-09-04T22:46:06;1.70;;;1.60;;
9536;SDS011;4807;48.024;11.726;2022-09-04T22:49:47;2.73;;;2.13;;
9536;SDS011;4807;48.024;11.726;2022-09-04T22:54:01;2.20;;;1.43;;
9536;SDS011;4807;48.024;11.726;2022-09-04T22:57:44;1.60;;;1.50;;
9536;SDS011;4807;48.024;11.726;2022-09-04T23:01:25;1.53;;;1.43;;
9536;SDS011;4807;48.024;11.726;2022-09-04T23:04:56;2.80;;;1.87;;
9536;SDS011;4807;48.024;11.726;2022-09-04T23:08:50;2.50;;;1.57;;
9536;SDS011;4807;48.024;11.726;2022-09-04T23:12:50;2.90;;;1.53;;
9536;SDS011;4807;48.024;11.726;2022-09-04T23:16:58;1.70;;;1.57;;